sensor_id;sensor_type;location;lat;lon;timestamp;P1;durP1;ratioP1;P2;durP2;ratioP2
17917;SDS011;9084;50.956;3.106;2024-03-06T00:02:10;5.03;;;4.63;;
17917;SDS011;9084;50.956;3.106;2024-03-06T00:04:38;5.65;;;5.18;;
17917;SDS011;9084;50.956;3.106;2024-03-06T00:07:04;5.80;;;5.30;;
17917;SDS011;9084;50.956;3.106;2024-03-06T00:09:30;5.40;;;4.88;;
17917;SDS011;9084;50.956;3.106;2024-03-06T00:11:55;5.35;;;4.85;;
17917;SDS011;9084;50.956;3.106;2024-03-06T00:14:22;6.13;;;5.53;;
17917;SDS011;9084;50.956;3.106;2024-03-06T00:16:48;6.57;;;5.00;;
17917;SDS011;9084;50.956;3.106;2024-03-06T00:19:15;5.47;;;4.97;;
17917;SDS011;9084;50.956;3.106;2024-03-06T00:21:44;4.60;;;4.20;;
17917;SDS011;9084;50.956;3.106;2024-03-06T00:24:13;4.93;;;4.53;;
17917;SDS011;9084;50.956;3.106;2024-03-06T00:26:41;4.95;;;4.55;;
17917;SDS011;9084;50.956;3.106;2024-03-06T00:29:09;5.28;;;4.88;;
17917;SDS011;9084;50.956;3.106;2024-03-06T00:31:37;5.00;;;4.60;;
17917;SDS011;9084;50.956;3.106;2024-03-06T00:34:08;6.22;;;5.28;;
17917;SDS011;9084;50.956;3.106;2024-03-06T00:36:34;6.40;;;5.32;;
17917;SDS011;9084;50.956;3.106;2024-03-06T00:38:59;5.53;;;5.00;;
17917;SDS011;9084;50.956;3.106;2024-03-06T00:41:29;5.72;;;5.22;;
17917;SDS011;9084;50.956;3.106;2024-03-06T00:43:55;6.10;;;5.60;;
17917;SDS011;9084;50.956;3.106;2024-03-06T00:46:21;5.72;;;5.30;;
17917;SDS011;9084;50.956;3.106;2024-03-06T00:48:47;5.68;;;5.15;;
17917;SDS011;9084;50.956;3.106;2024-03-06T00:51:12;5.55;;;5.15;;
17917;SDS011;9084;50.956;3.106;2024-03-06T00:53:40;5.75;;;5.25;;
17917;SDS011;9084;50.956;3.106;2024-03-06T00:56:06;5.70;;;5.20;;
17917;SDS011;9084;50.956;3.106;2024-03-06T00:58:32;5.57;;;5.10;;
17917;SDS011;9084;50.956;3.106;2024-03-06T01:01:00;5.72;;;5.10;;
17917;SDS011;9084;50.956;3.106;2024-03-06T01:03:29;5.57;;;5.07;;
17917;SDS011;9084;50.956;3.106;2024-03-06T01:05:55;6.18;;;5.68;;
17917;SDS011;9084;50.956;3.106;2024-03-06T01:08:23;5.80;;;5.30;;
17917;SDS011;9084;50.956;3.106;2024-03-06T01:10:52;5.53;;;5.00;;
17917;SDS011;9084;50.956;3.106;2024-03-06T01:13:19;5.85;;;5.35;;
17917;SDS011;9084;50.956;3.106;2024-03-06T01:15:45;6.05;;;5.47;;
17917;SDS011;9084;50.956;3.106;2024-03-06T01:18:10;5.95;;;5.45;;
17917;SDS011;9084;50.956;3.106;2024-03-06T01:20:39;5.57;;;5.07;;
17917;SDS011;9084;50.956;3.106;2024-03-06T01:23:05;6.68;;;5.72;;
17917;SDS011;9084;50.956;3.106;2024-03-06T01:25:33;5.88;;;5.38;;
17917;SDS011;9084;50.956;3.106;2024-03-06T01:27:59;6.55;;;5.90;;
17917;SDS011;9084;50.956;3.106;2024-03-06T01:30:25;6.25;;;5.75;;
17917;SDS011;9084;50.956;3.106;2024-03-06T01:32:50;6.45;;;5.85;;
17917;SDS011;9084;50.956;3.106;2024-03-06T01:35:16;6.47;;;5.97;;
17917;SDS011;9084;50.956;3.106;2024-03-06T01:37:44;6.53;;;5.93;;
17917;SDS011;9084;50.956;3.106;2024-03-06T01:40:13;5.78;;;5.28;;
17917;SDS011;9084;50.956;3.106;2024-03-06T01:42:40;6.78;;;6.28;;
17917;SDS011;9084;50.956;3.106;2024-03-06T01:45:13;6.53;;;5.88;;
17917;SDS011;9084;50.956;3.106;2024-03-06T01:47:39;6.30;;;5.80;;
17917;SDS011;9084;50.956;3.106;2024-03-06T01:50:07;6.60;;;6.10;;
17917;SDS011;9084;50.956;3.106;2024-03-06T01:52:37;6.03;;;5.50;;
17917;SDS011;9084;50.956;3.106;2024-03-06T01:55:05;5.95;;;5.45;;
17917;SDS011;9084;50.956;3.106;2024-03-06T01:57:33;6.95;;;6.35;;
17917;SDS011;9084;50.956;3.106;2024-03-06T02:00:02;6.28;;;5.78;;
17917;SDS011;9084;50.956;3.106;2024-03-06T02:02:29;5.88;;;5.38;;
17917;SDS011;9084;50.956;3.106;2024-03-06T02:04:55;7.18;;;5.10;;
17917;SDS011;9084;50.956;3.106;2024-03-06T02:07:24;6.13;;;5.53;;
17917;SDS011;9084;50.956;3.106;2024-03-06T02:09:52;6.10;;;5.60;;
17917;SDS011;9084;50.956;3.106;2024-03-06T02:12:21;6.43;;;5.82;;
17917;SDS011;9084;50.956;3.106;2024-03-06T02:14:46;7.20;;;6.28;;
17917;SDS011;9084;50.956;3.106;2024-03-06T02:17:15;6.70;;;6.18;;
17917;SDS011;9084;50.956;3.106;2024-03-06T02:19:41;6.70;;;6.10;;
17917;SDS011;9084;50.956;3.106;2024-03-06T02:22:12;6.50;;;6.00;;
17917;SDS011;9084;50.956;3.106;2024-03-06T02:24:38;6.40;;;5.80;;
17917;SDS011;9084;50.956;3.106;2024-03-06T02:27:10;6.93;;;6.32;;
17917;SDS011;9084;50.956;3.106;2024-03-06T02:29:36;6.97;;;6.28;;
17917;SDS011;9084;50.956;3.106;2024-03-06T02:32:05;5.93;;;5.43;;
17917;SDS011;9084;50.956;3.106;2024-03-06T02:34:33;7.30;;;6.70;;
17917;SDS011;9084;50.956;3.106;2024-03-06T02:37:01;7.38;;;6.78;;
17917;SDS011;9084;50.956;3.106;2024-03-06T02:39:27;7.57;;;6.97;;
17917;SDS011;9084;50.956;3.106;2024-03-06T02:41:53;7.00;;;6.43;;
17917;SDS011;9084;50.956;3.106;2024-03-06T02:44:18;7.40;;;6.80;;
17917;SDS011;9084;50.956;3.106;2024-03-06T02:46:47;6.93;;;6.32;;
17917;SDS011;9084;50.956;3.106;2024-03-06T02:49:13;6.68;;;6.18;;
17917;SDS011;9084;50.956;3.106;2024-03-06T02:51:40;7.50;;;6.75;;
17917;SDS011;9084;50.956;3.106;2024-03-06T02:54:06;6.55;;;6.00;;
17917;SDS011;9084;50.956;3.106;2024-03-06T02:56:32;6.22;;;5.72;;
17917;SDS011;9084;50.956;3.106;2024-03-06T02:59:00;6.38;;;5.88;;
17917;SDS011;9084;50.956;3.106;2024-03-06T03:01:30;9.70;;;6.85;;
17917;SDS011;9084;50.956;3.106;2024-03-06T03:03:58;7.32;;;6.72;;
17917;SDS011;9084;50.956;3.106;2024-03-06T03:06:23;7.65;;;6.93;;
17917;SDS011;9084;50.956;3.106;2024-03-06T03:08:49;8.52;;;7.63;;
17917;SDS011;9084;50.956;3.106;2024-03-06T03:11:15;10.55;;;9.55;;
17917;SDS011;9084;50.956;3.106;2024-03-06T03:13:41;11.45;;;10.40;;
17917;SDS011;9084;50.956;3.106;2024-03-06T03:16:07;12.68;;;11.40;;
17917;SDS011;9084;50.956;3.106;2024-03-06T03:18:44;11.40;;;10.38;;
17917;SDS011;9084;50.956;3.106;2024-03-06T03:21:10;12.13;;;11.02;;
17917;SDS011;9084;50.956;3.106;2024-03-06T03:23:38;11.50;;;10.50;;
17917;SDS011;9084;50.956;3.106;2024-03-06T03:26:09;12.70;;;11.50;;
17917;SDS011;9084;50.956;3.106;2024-03-06T03:28:38;11.50;;;10.48;;
17917;SDS011;9084;50.956;3.106;2024-03-06T03:31:05;12.85;;;11.65;;
17917;SDS011;9084;50.956;3.106;2024-03-06T03:33:35;12.32;;;11.23;;
17917;SDS011;9084;50.956;3.106;2024-03-06T03:36:04;12.40;;;11.30;;
17917;SDS011;9084;50.956;3.106;2024-03-06T03:38:37;12.18;;;11.10;;
17917;SDS011;9084;50.956;3.106;2024-03-06T03:41:09;12.15;;;11.00;;
17917;SDS011;9084;50.956;3.106;2024-03-06T03:43:37;11.98;;;10.77;;
17917;SDS011;9084;50.956;3.106;2024-03-06T03:46:08;11.60;;;10.50;;
17917;SDS011;9084;50.956;3.106;2024-03-06T03:48:34;11.75;;;10.65;;
17917;SDS011;9084;50.956;3.106;2024-03-06T03:51:03;11.30;;;10.30;;
17917;SDS011;9084;50.956;3.106;2024-03-06T03:53:35;11.52;;;10.32;;
17917;SDS011;9084;50.956;3.106;2024-03-06T03:56:01;11.82;;;10.73;;
17917;SDS011;9084;50.956;3.106;2024-03-06T03:58:28;10.43;;;9.07;;
17917;SDS011;9084;50.956;3.106;2024-03-06T04:01:00;10.93;;;9.85;;
17917;SDS011;9084;50.956;3.106;2024-03-06T04:03:28;11.68;;;10.65;;
17917;SDS011;9084;50.956;3.106;2024-03-06T04:05:54;11.02;;;10.02;;
17917;SDS011;9084;50.956;3.106;2024-03-06T04:08:19;10.85;;;9.85;;
17917;SDS011;9084;50.956;3.106;2024-03-06T04:10:45;11.55;;;10.55;;
17917;SDS011;9084;50.956;3.106;2024-03-06T04:13:14;11.75;;;10.65;;
17917;SDS011;9084;50.956;3.106;2024-03-06T04:15:41;10.65;;;9.38;;
17917;SDS011;9084;50.956;3.106;2024-03-06T04:18:06;10.77;;;9.20;;
17917;SDS011;9084;50.956;3.106;2024-03-06T04:20:32;11.38;;;10.27;;
17917;SDS011;9084;50.956;3.106;2024-03-06T04:23:00;13.32;;;12.05;;
17917;SDS011;9084;50.956;3.106;2024-03-06T04:25:28;12.88;;;11.57;;
17917;SDS011;9084;50.956;3.106;2024-03-06T04:27:56;13.32;;;12.02;;
17917;SDS011;9084;50.956;3.106;2024-03-06T04:30:22;13.57;;;12.27;;
17917;SDS011;9084;50.956;3.106;2024-03-06T04:32:48;14.95;;;13.45;;
17917;SDS011;9084;50.956;3.106;2024-03-06T04:35:13;14.85;;;13.40;;
17917;SDS011;9084;50.956;3.106;2024-03-06T04:37:42;15.90;;;14.30;;
17917;SDS011;9084;50.956;3.106;2024-03-06T04:40:08;14.52;;;13.23;;
17917;SDS011;9084;50.956;3.106;2024-03-06T04:42:35;14.18;;;11.98;;
17917;SDS011;9084;50.956;3.106;2024-03-06T04:45:03;16.08;;;14.38;;
17917;SDS011;9084;50.956;3.106;2024-03-06T04:47:49;15.05;;;13.65;;
17917;SDS011;9084;50.956;3.106;2024-03-06T04:50:15;16.15;;;14.65;;
17917;SDS011;9084;50.956;3.106;2024-03-06T04:52:41;15.50;;;14.02;;
17917;SDS011;9084;50.956;3.106;2024-03-06T04:55:09;16.02;;;14.55;;
17917;SDS011;9084;50.956;3.106;2024-03-06T04:57:37;16.75;;;15.20;;
17917;SDS011;9084;50.956;3.106;2024-03-06T05:00:03;18.60;;;16.75;;
17917;SDS011;9084;50.956;3.106;2024-03-06T05:02:33;17.63;;;16.02;;
17917;SDS011;9084;50.956;3.106;2024-03-06T05:05:02;16.90;;;15.30;;
17917;SDS011;9084;50.956;3.106;2024-03-06T05:07:29;16.42;;;14.93;;
17917;SDS011;9084;50.956;3.106;2024-03-06T05:09:55;16.05;;;14.55;;
17917;SDS011;9084;50.956;3.106;2024-03-06T05:12:22;17.30;;;15.68;;
17917;SDS011;9084;50.956;3.106;2024-03-06T05:14:48;18.33;;;16.55;;
17917;SDS011;9084;50.956;3.106;2024-03-06T05:17:14;16.55;;;15.05;;
17917;SDS011;9084;50.956;3.106;2024-03-06T05:19:40;18.65;;;16.77;;
17917;SDS011;9084;50.956;3.106;2024-03-06T05:22:05;17.30;;;15.63;;
17917;SDS011;9084;50.956;3.106;2024-03-06T05:24:31;16.95;;;15.20;;
17917;SDS011;9084;50.956;3.106;2024-03-06T05:26:56;16.48;;;14.82;;
17917;SDS011;9084;50.956;3.106;2024-03-06T05:29:24;15.50;;;13.90;;
17917;SDS011;9084;50.956;3.106;2024-03-06T05:31:50;15.52;;;14.02;;
17917;SDS011;9084;50.956;3.106;2024-03-06T05:34:15;15.30;;;13.83;;
17917;SDS011;9084;50.956;3.106;2024-03-06T05:36:41;14.93;;;13.43;;
17917;SDS011;9084;50.956;3.106;2024-03-06T05:39:09;15.70;;;14.23;;
17917;SDS011;9084;50.956;3.106;2024-03-06T05:41:37;13.07;;;11.87;;
17917;SDS011;9084;50.956;3.106;2024-03-06T05:44:04;14.13;;;12.73;;
17917;SDS011;9084;50.956;3.106;2024-03-06T05:46:30;12.97;;;11.67;;
17917;SDS011;9084;50.956;3.106;2024-03-06T05:48:56;13.07;;;11.88;;
17917;SDS011;9084;50.956;3.106;2024-03-06T05:51:22;13.20;;;11.90;;
17917;SDS011;9084;50.956;3.106;2024-03-06T05:53:47;13.63;;;12.32;;
17917;SDS011;9084;50.956;3.106;2024-03-06T05:56:13;13.33;;;12.13;;
17917;SDS011;9084;50.956;3.106;2024-03-06T05:58:38;13.77;;;12.50;;
17917;SDS011;9084;50.956;3.106;2024-03-06T06:01:04;14.00;;;12.77;;
17917;SDS011;9084;50.956;3.106;2024-03-06T06:03:30;12.63;;;11.43;;
17917;SDS011;9084;50.956;3.106;2024-03-06T06:05:56;13.00;;;11.23;;
17917;SDS011;9084;50.956;3.106;2024-03-06T06:08:24;13.13;;;11.73;;
17917;SDS011;9084;50.956;3.106;2024-03-06T06:10:50;13.40;;;12.20;;
17917;SDS011;9084;50.956;3.106;2024-03-06T06:13:19;13.00;;;11.80;;
17917;SDS011;9084;50.956;3.106;2024-03-06T06:15:47;12.87;;;11.77;;
17917;SDS011;9084;50.956;3.106;2024-03-06T06:18:18;14.70;;;13.20;;
17917;SDS011;9084;50.956;3.106;2024-03-06T06:20:43;13.17;;;12.07;;
17917;SDS011;9084;50.956;3.106;2024-03-06T06:23:09;13.13;;;11.93;;
17917;SDS011;9084;50.956;3.106;2024-03-06T06:25:35;12.90;;;11.80;;
17917;SDS011;9084;50.956;3.106;2024-03-06T06:28:01;13.80;;;12.40;;
17917;SDS011;9084;50.956;3.106;2024-03-06T06:30:26;14.13;;;12.83;;
17917;SDS011;9084;50.956;3.106;2024-03-06T06:32:52;13.63;;;12.33;;
17917;SDS011;9084;50.956;3.106;2024-03-06T06:35:18;13.00;;;11.83;;
17917;SDS011;9084;50.956;3.106;2024-03-06T06:37:44;16.80;;;12.60;;
17917;SDS011;9084;50.956;3.106;2024-03-06T06:40:10;14.20;;;12.80;;
17917;SDS011;9084;50.956;3.106;2024-03-06T06:42:43;13.23;;;12.00;;
17917;SDS011;9084;50.956;3.106;2024-03-06T06:45:14;14.60;;;13.10;;
17917;SDS011;9084;50.956;3.106;2024-03-06T06:47:48;14.77;;;13.27;;
17917;SDS011;9084;50.956;3.106;2024-03-06T06:50:15;15.07;;;13.67;;
17917;SDS011;9084;50.956;3.106;2024-03-06T06:52:43;15.23;;;13.73;;
17917;SDS011;9084;50.956;3.106;2024-03-06T06:55:09;15.23;;;13.43;;
17917;SDS011;9084;50.956;3.106;2024-03-06T06:57:36;16.73;;;15.03;;
17917;SDS011;9084;50.956;3.106;2024-03-06T07:00:02;17.17;;;15.37;;
17917;SDS011;9084;50.956;3.106;2024-03-06T07:02:36;18.67;;;16.03;;
17917;SDS011;9084;50.956;3.106;2024-03-06T07:05:03;20.77;;;17.77;;
17917;SDS011;9084;50.956;3.106;2024-03-06T07:07:32;20.63;;;17.43;;
17917;SDS011;9084;50.956;3.106;2024-03-06T07:09:57;23.42;;;18.55;;
17917;SDS011;9084;50.956;3.106;2024-03-06T07:12:23;24.30;;;18.53;;
17917;SDS011;9084;50.956;3.106;2024-03-06T07:14:51;19.92;;;17.75;;
17917;SDS011;9084;50.956;3.106;2024-03-06T07:17:19;19.02;;;16.20;;
17917;SDS011;9084;50.956;3.106;2024-03-06T07:19:45;20.70;;;16.25;;
17917;SDS011;9084;50.956;3.106;2024-03-06T07:22:10;20.10;;;17.65;;
17917;SDS011;9084;50.956;3.106;2024-03-06T07:24:36;19.42;;;15.52;;
17917;SDS011;9084;50.956;3.106;2024-03-06T07:27:04;20.05;;;15.60;;
17917;SDS011;9084;50.956;3.106;2024-03-06T07:29:34;17.73;;;14.98;;
17917;SDS011;9084;50.956;3.106;2024-03-06T07:32:02;16.25;;;14.38;;
17917;SDS011;9084;50.956;3.106;2024-03-06T07:34:30;17.42;;;15.48;;
17917;SDS011;9084;50.956;3.106;2024-03-06T07:36:56;14.65;;;13.02;;
17917;SDS011;9084;50.956;3.106;2024-03-06T07:39:24;15.25;;;13.38;;
17917;SDS011;9084;50.956;3.106;2024-03-06T07:41:50;16.38;;;14.57;;
17917;SDS011;9084;50.956;3.106;2024-03-06T07:44:18;14.35;;;12.93;;
17917;SDS011;9084;50.956;3.106;2024-03-06T07:46:46;13.82;;;12.52;;
17917;SDS011;9084;50.956;3.106;2024-03-06T07:49:12;12.93;;;11.50;;
17917;SDS011;9084;50.956;3.106;2024-03-06T07:51:40;13.30;;;11.95;;
17917;SDS011;9084;50.956;3.106;2024-03-06T07:54:11;13.43;;;11.73;;
17917;SDS011;9084;50.956;3.106;2024-03-06T07:56:36;12.00;;;10.88;;
17917;SDS011;9084;50.956;3.106;2024-03-06T07:59:04;11.75;;;10.65;;
17917;SDS011;9084;50.956;3.106;2024-03-06T08:01:32;12.32;;;11.10;;
17917;SDS011;9084;50.956;3.106;2024-03-06T08:03:58;10.77;;;9.77;;
17917;SDS011;9084;50.956;3.106;2024-03-06T08:06:24;12.85;;;11.00;;
17917;SDS011;9084;50.956;3.106;2024-03-06T08:08:54;12.70;;;11.52;;
17917;SDS011;9084;50.956;3.106;2024-03-06T08:11:23;12.88;;;11.50;;
17917;SDS011;9084;50.956;3.106;2024-03-06T08:13:55;11.50;;;10.40;;
17917;SDS011;9084;50.956;3.106;2024-03-06T08:16:22;11.70;;;10.70;;
17917;SDS011;9084;50.956;3.106;2024-03-06T08:18:50;13.18;;;10.95;;
17917;SDS011;9084;50.956;3.106;2024-03-06T08:21:15;13.48;;;12.23;;
17917;SDS011;9084;50.956;3.106;2024-03-06T08:23:41;11.57;;;10.57;;
17917;SDS011;9084;50.956;3.106;2024-03-06T08:26:08;11.48;;;10.48;;
17917;SDS011;9084;50.956;3.106;2024-03-06T08:28:36;12.30;;;11.20;;
17917;SDS011;9084;50.956;3.106;2024-03-06T08:31:04;11.80;;;10.73;;
17917;SDS011;9084;50.956;3.106;2024-03-06T08:33:33;12.70;;;11.60;;
17917;SDS011;9084;50.956;3.106;2024-03-06T08:36:01;12.07;;;10.98;;
17917;SDS011;9084;50.956;3.106;2024-03-06T08:38:30;13.05;;;10.30;;
17917;SDS011;9084;50.956;3.106;2024-03-06T08:40:56;12.10;;;11.05;;
17917;SDS011;9084;50.956;3.106;2024-03-06T08:43:21;11.60;;;10.50;;
17917;SDS011;9084;50.956;3.106;2024-03-06T08:45:51;12.40;;;11.20;;
17917;SDS011;9084;50.956;3.106;2024-03-06T08:48:20;13.13;;;11.85;;
17917;SDS011;9084;50.956;3.106;2024-03-06T08:50:51;12.73;;;11.48;;
17917;SDS011;9084;50.956;3.106;2024-03-06T08:53:17;12.45;;;11.32;;
17917;SDS011;9084;50.956;3.106;2024-03-06T08:55:43;13.75;;;12.45;;
17917;SDS011;9084;50.956;3.106;2024-03-06T08:58:14;16.48;;;13.05;;
17917;SDS011;9084;50.956;3.106;2024-03-06T09:00:39;13.38;;;11.98;;
17917;SDS011;9084;50.956;3.106;2024-03-06T09:03:05;14.82;;;13.23;;
17917;SDS011;9084;50.956;3.106;2024-03-06T09:05:31;14.80;;;12.93;;
17917;SDS011;9084;50.956;3.106;2024-03-06T09:07:57;14.57;;;13.07;;
17917;SDS011;9084;50.956;3.106;2024-03-06T09:10:22;13.38;;;12.07;;
17917;SDS011;9084;50.956;3.106;2024-03-06T09:12:48;13.20;;;12.10;;
17917;SDS011;9084;50.956;3.106;2024-03-06T09:15:14;14.90;;;13.60;;
17917;SDS011;9084;50.956;3.106;2024-03-06T09:17:43;14.13;;;12.73;;
17917;SDS011;9084;50.956;3.106;2024-03-06T09:20:10;15.02;;;13.73;;
17917;SDS011;9084;50.956;3.106;2024-03-06T09:22:36;13.38;;;12.07;;
17917;SDS011;9084;50.956;3.106;2024-03-06T09:25:06;13.40;;;12.10;;
17917;SDS011;9084;50.956;3.106;2024-03-06T09:27:32;14.48;;;13.30;;
17917;SDS011;9084;50.956;3.106;2024-03-06T09:30:00;15.43;;;14.02;;
17917;SDS011;9084;50.956;3.106;2024-03-06T09:32:28;15.02;;;13.50;;
17917;SDS011;9084;50.956;3.106;2024-03-06T09:34:56;15.23;;;13.82;;
17917;SDS011;9084;50.956;3.106;2024-03-06T09:37:22;16.63;;;14.52;;
17917;SDS011;9084;50.956;3.106;2024-03-06T09:39:48;14.95;;;13.38;;
17917;SDS011;9084;50.956;3.106;2024-03-06T09:42:14;15.32;;;14.02;;
17917;SDS011;9084;50.956;3.106;2024-03-06T09:44:40;16.48;;;14.85;;
17917;SDS011;9084;50.956;3.106;2024-03-06T09:47:06;15.52;;;14.13;;
17917;SDS011;9084;50.956;3.106;2024-03-06T09:49:34;15.88;;;14.38;;
17917;SDS011;9084;50.956;3.106;2024-03-06T09:52:00;15.27;;;13.93;;
17917;SDS011;9084;50.956;3.106;2024-03-06T09:54:30;15.98;;;14.43;;
17917;SDS011;9084;50.956;3.106;2024-03-06T09:56:56;17.02;;;15.43;;
17917;SDS011;9084;50.956;3.106;2024-03-06T09:59:23;17.33;;;15.60;;
17917;SDS011;9084;50.956;3.106;2024-03-06T10:01:57;19.88;;;17.95;;
17917;SDS011;9084;50.956;3.106;2024-03-06T10:04:26;19.60;;;17.75;;
17917;SDS011;9084;50.956;3.106;2024-03-06T10:06:55;18.60;;;16.90;;
17917;SDS011;9084;50.956;3.106;2024-03-06T10:09:24;15.45;;;14.05;;
17917;SDS011;9084;50.956;3.106;2024-03-06T10:11:51;16.77;;;15.32;;
17917;SDS011;9084;50.956;3.106;2024-03-06T10:14:19;16.50;;;15.00;;
17917;SDS011;9084;50.956;3.106;2024-03-06T10:17:18;16.92;;;15.43;;
17917;SDS011;9084;50.956;3.106;2024-03-06T10:19:47;17.55;;;15.90;;
17917;SDS011;9084;50.956;3.106;2024-03-06T10:22:16;15.98;;;14.48;;
17917;SDS011;9084;50.956;3.106;2024-03-06T10:24:49;15.57;;;14.00;;
17917;SDS011;9084;50.956;3.106;2024-03-06T10:27:15;14.35;;;12.95;;
17917;SDS011;9084;50.956;3.106;2024-03-06T10:29:42;13.93;;;12.65;;
17917;SDS011;9084;50.956;3.106;2024-03-06T10:32:10;13.35;;;12.15;;
17917;SDS011;9084;50.956;3.106;2024-03-06T10:34:41;12.75;;;11.32;;
17917;SDS011;9084;50.956;3.106;2024-03-06T10:37:10;11.20;;;10.30;;
17917;SDS011;9084;50.956;3.106;2024-03-06T10:39:39;9.05;;;8.25;;
17917;SDS011;9084;50.956;3.106;2024-03-06T10:42:09;8.57;;;7.90;;
17917;SDS011;9084;50.956;3.106;2024-03-06T10:44:48;10.40;;;9.40;;
17917;SDS011;9084;50.956;3.106;2024-03-06T10:47:19;8.73;;;7.93;;
17917;SDS011;9084;50.956;3.106;2024-03-06T10:49:46;5.40;;;4.90;;
17917;SDS011;9084;50.956;3.106;2024-03-06T10:52:12;8.13;;;7.43;;
17917;SDS011;9084;50.956;3.106;2024-03-06T10:54:41;7.63;;;6.88;;
17917;SDS011;9084;50.956;3.106;2024-03-06T10:57:14;7.43;;;6.78;;
17917;SDS011;9084;50.956;3.106;2024-03-06T10:59:40;8.23;;;7.32;;
17917;SDS011;9084;50.956;3.106;2024-03-06T11:02:07;6.13;;;5.53;;
17917;SDS011;9084;50.956;3.106;2024-03-06T11:04:34;5.30;;;4.90;;
17917;SDS011;9084;50.956;3.106;2024-03-06T11:07:03;4.25;;;3.85;;
17917;SDS011;9084;50.956;3.106;2024-03-06T11:09:38;7.65;;;6.95;;
17917;SDS011;9084;50.956;3.106;2024-03-06T11:12:04;8.98;;;8.07;;
17917;SDS011;9084;50.956;3.106;2024-03-06T11:14:32;10.60;;;9.68;;
17917;SDS011;9084;50.956;3.106;2024-03-06T11:17:03;8.57;;;7.78;;
17917;SDS011;9084;50.956;3.106;2024-03-06T11:26:09;6.88;;;6.28;;
17917;SDS011;9084;50.956;3.106;2024-03-06T11:28:15;5.65;;;5.07;;
17917;SDS011;9084;50.956;3.106;2024-03-06T11:30:55;7.50;;;6.85;;
17917;SDS011;9084;50.956;3.106;2024-03-06T11:36:20;8.88;;;8.18;;
17917;SDS011;9084;50.956;3.106;2024-03-06T11:41:28;9.32;;;8.52;;
17917;SDS011;9084;50.956;3.106;2024-03-06T11:43:55;9.65;;;8.70;;
17917;SDS011;9084;50.956;3.106;2024-03-06T11:46:22;9.68;;;8.88;;
17917;SDS011;9084;50.956;3.106;2024-03-06T11:49:04;10.38;;;9.48;;
17917;SDS011;9084;50.956;3.106;2024-03-06T11:51:49;10.00;;;9.10;;
17917;SDS011;9084;50.956;3.106;2024-03-06T11:54:20;9.52;;;8.82;;
17917;SDS011;9084;50.956;3.106;2024-03-06T11:56:52;8.00;;;7.40;;
17917;SDS011;9084;50.956;3.106;2024-03-06T11:59:28;9.05;;;8.25;;
17917;SDS011;9084;50.956;3.106;2024-03-06T12:01:57;7.78;;;7.10;;
17917;SDS011;9084;50.956;3.106;2024-03-06T12:04:26;7.13;;;6.63;;
17917;SDS011;9084;50.956;3.106;2024-03-06T12:06:52;7.78;;;7.03;;
17917;SDS011;9084;50.956;3.106;2024-03-06T12:09:21;8.85;;;8.15;;
17917;SDS011;9084;50.956;3.106;2024-03-06T12:11:49;8.95;;;8.15;;
17917;SDS011;9084;50.956;3.106;2024-03-06T12:14:17;8.98;;;8.32;;
17917;SDS011;9084;50.956;3.106;2024-03-06T12:16:58;8.52;;;7.82;;
17917;SDS011;9084;50.956;3.106;2024-03-06T12:19:32;8.68;;;7.97;;
17917;SDS011;9084;50.956;3.106;2024-03-06T12:22:02;9.20;;;8.35;;
17917;SDS011;9084;50.956;3.106;2024-03-06T12:24:29;8.63;;;7.93;;
17917;SDS011;9084;50.956;3.106;2024-03-06T12:27:06;8.90;;;8.20;;
17917;SDS011;9084;50.956;3.106;2024-03-06T12:29:34;8.98;;;8.07;;
17917;SDS011;9084;50.956;3.106;2024-03-06T12:32:04;8.65;;;8.05;;
17917;SDS011;9084;50.956;3.106;2024-03-06T12:34:43;8.55;;;7.88;;
17917;SDS011;9084;50.956;3.106;2024-03-06T12:37:10;7.38;;;6.78;;
17917;SDS011;9084;50.956;3.106;2024-03-06T12:39:36;6.15;;;5.65;;
17917;SDS011;9084;50.956;3.106;2024-03-06T12:42:02;6.53;;;5.97;;
17917;SDS011;9084;50.956;3.106;2024-03-06T12:44:28;6.47;;;5.97;;
17917;SDS011;9084;50.956;3.106;2024-03-06T12:46:53;7.13;;;6.57;;
17917;SDS011;9084;50.956;3.106;2024-03-06T12:49:19;6.30;;;5.80;;
17917;SDS011;9084;50.956;3.106;2024-03-06T12:51:45;6.63;;;6.07;;
17917;SDS011;9084;50.956;3.106;2024-03-06T12:54:10;6.93;;;6.32;;
17917;SDS011;9084;50.956;3.106;2024-03-06T12:56:36;6.38;;;5.80;;
17917;SDS011;9084;50.956;3.106;2024-03-06T12:59:01;5.93;;;5.47;;
17917;SDS011;9084;50.956;3.106;2024-03-06T13:01:30;6.38;;;5.88;;
17917;SDS011;9084;50.956;3.106;2024-03-06T13:03:56;6.07;;;5.57;;
17917;SDS011;9084;50.956;3.106;2024-03-06T13:06:22;5.65;;;5.20;;
17917;SDS011;9084;50.956;3.106;2024-03-06T13:08:49;5.78;;;5.28;;
17917;SDS011;9084;50.956;3.106;2024-03-06T13:11:20;6.60;;;6.00;;
17917;SDS011;9084;50.956;3.106;2024-03-06T13:13:48;5.60;;;5.07;;
17917;SDS011;9084;50.956;3.106;2024-03-06T13:16:14;5.38;;;4.97;;
17917;SDS011;9084;50.956;3.106;2024-03-06T13:18:39;4.95;;;4.55;;
17917;SDS011;9084;50.956;3.106;2024-03-06T13:21:09;6.03;;;4.20;;
17917;SDS011;9084;50.956;3.106;2024-03-06T13:23:37;4.25;;;3.92;;
17917;SDS011;9084;50.956;3.106;2024-03-06T13:26:03;4.47;;;4.07;;
17917;SDS011;9084;50.956;3.106;2024-03-06T13:28:29;4.15;;;3.85;;
17917;SDS011;9084;50.956;3.106;2024-03-06T13:30:56;6.38;;;4.50;;
17917;SDS011;9084;50.956;3.106;2024-03-06T13:33:24;5.03;;;3.97;;
17917;SDS011;9084;50.956;3.106;2024-03-06T13:35:51;4.13;;;3.80;;
17917;SDS011;9084;50.956;3.106;2024-03-06T13:38:19;4.22;;;3.85;;
17917;SDS011;9084;50.956;3.106;2024-03-06T13:40:47;3.85;;;3.40;;
17917;SDS011;9084;50.956;3.106;2024-03-06T13:43:15;7.63;;;4.03;;
17917;SDS011;9084;50.956;3.106;2024-03-06T13:45:50;3.53;;;2.75;;
17917;SDS011;9084;50.956;3.106;2024-03-06T13:48:16;3.10;;;2.20;;
17917;SDS011;9084;50.956;3.106;2024-03-06T13:50:45;3.15;;;2.30;;
17917;SDS011;9084;50.956;3.106;2024-03-06T13:53:11;2.47;;;2.28;;
17917;SDS011;9084;50.956;3.106;2024-03-06T13:55:37;2.25;;;2.05;;
17917;SDS011;9084;50.956;3.106;2024-03-06T13:58:03;2.47;;;2.03;;
17917;SDS011;9084;50.956;3.106;2024-03-06T14:00:29;3.00;;;2.40;;
17917;SDS011;9084;50.956;3.106;2024-03-06T14:02:55;2.28;;;2.08;;
17917;SDS011;9084;50.956;3.106;2024-03-06T14:05:21;2.63;;;2.00;;
17917;SDS011;9084;50.956;3.106;2024-03-06T14:07:52;2.60;;;2.33;;
17917;SDS011;9084;50.956;3.106;2024-03-06T14:10:21;3.55;;;2.05;;
17917;SDS011;9084;50.956;3.106;2024-03-06T14:12:49;2.75;;;2.55;;
17917;SDS011;9084;50.956;3.106;2024-03-06T14:15:17;3.35;;;2.65;;
17917;SDS011;9084;50.956;3.106;2024-03-06T14:17:48;3.63;;;2.88;;
17917;SDS011;9084;50.956;3.106;2024-03-06T14:20:14;3.55;;;2.67;;
17917;SDS011;9084;50.956;3.106;2024-03-06T14:22:45;2.85;;;2.65;;
17917;SDS011;9084;50.956;3.106;2024-03-06T14:25:12;3.20;;;2.28;;
17917;SDS011;9084;50.956;3.106;2024-03-06T14:27:40;2.55;;;2.35;;
17917;SDS011;9084;50.956;3.106;2024-03-06T14:30:07;3.15;;;2.63;;
17917;SDS011;9084;50.956;3.106;2024-03-06T14:32:33;3.70;;;3.30;;
17917;SDS011;9084;50.956;3.106;2024-03-06T14:35:03;4.68;;;2.90;;
17917;SDS011;9084;50.956;3.106;2024-03-06T14:37:29;2.75;;;2.47;;
17917;SDS011;9084;50.956;3.106;2024-03-06T14:39:57;2.78;;;2.58;;
17917;SDS011;9084;50.956;3.106;2024-03-06T14:42:23;4.07;;;2.25;;
17917;SDS011;9084;50.956;3.106;2024-03-06T14:44:51;1.98;;;1.73;;
17917;SDS011;9084;50.956;3.106;2024-03-06T14:47:23;2.58;;;1.60;;
17917;SDS011;9084;50.956;3.106;2024-03-06T14:49:49;1.50;;;1.40;;
17917;SDS011;9084;50.956;3.106;2024-03-06T14:52:14;3.13;;;1.90;;
17917;SDS011;9084;50.956;3.106;2024-03-06T14:54:40;3.35;;;2.05;;
17917;SDS011;9084;50.956;3.106;2024-03-06T14:57:09;4.47;;;2.00;;
17917;SDS011;9084;50.956;3.106;2024-03-06T14:59:34;2.42;;;1.70;;
17917;SDS011;9084;50.956;3.106;2024-03-06T15:02:01;2.03;;;1.83;;
17917;SDS011;9084;50.956;3.106;2024-03-06T15:04:28;3.65;;;1.85;;